sensor_id;sensor_type;location;lat;lon;timestamp;P1;durP1;ratioP1;P2;durP2;ratioP2
29574;SDS011;16507;51.046;6.406;2022-09-09T00:09:19;2.13;;;0.65;;
29574;SDS011;16507;51.046;6.406;2022-09-09T00:16:17;7.20;;;1.80;;
29574;SDS011;16507;51.046;6.406;2022-09-09T00:22:20;9.85;;;1.08;;
29574;SDS011;16507;51.046;6.406;2022-09-09T00:28:57;2.13;;;0.80;;
29574;SDS011;16507;51.046;6.406;2022-09-09T00:31:57;2.30;;;0.80;;
29574;SDS011;16507;51.046;6.406;2022-09-09T00:35:03;4.88;;;1.02;;
29574;SDS011;16507;51.046;6.406;2022-09-09T00:38:41;5.07;;;1.15;;
29574;SDS011;16507;51.046;6.406;2022-09-09T00:48:54;2.65;;;0.82;;
29574;SDS011;16507;51.046;6.406;2022-09-09T00:58:23;2.25;;;0.60;;
29574;SDS011;16507;51.046;6.406;2022-09-09T01:02:06;1.55;;;0.90;;
29574;SDS011;16507;51.046;6.406;2022-09-09T01:08:17;4.13;;;0.60;;
29574;SDS011;16507;51.046;6.406;2022-09-09T01:11:05;4.78;;;0.80;;
29574;SDS011;16507;51.046;6.406;2022-09-09T01:14:09;7.05;;;0.73;;
29574;SDS011;16507;51.046;6.406;2022-09-09T01:17:26;2.67;;;0.60;;
29574;SDS011;16507;51.046;6.406;2022-09-09T01:29:02;4.63;;;0.80;;
29574;SDS011;16507;51.046;6.406;2022-09-09T01:38:29;2.00;;;0.73;;
29574;SDS011;16507;51.046;6.406;2022-09-09T01:41:30;4.35;;;0.68;;
29574;SDS011;16507;51.046;6.406;2022-09-09T01:44:06;9.10;;;0.90;;
29574;SDS011;16507;51.046;6.406;2022-09-09T01:46:37;2.67;;;0.77;;
29574;SDS011;16507;51.046;6.406;2022-09-09T01:49:13;4.60;;;0.70;;
29574;SDS011;16507;51.046;6.406;2022-09-09T01:51:49;4.50;;;0.80;;
29574;SDS011;16507;51.046;6.406;2022-09-09T01:55:04;5.78;;;0.88;;
29574;SDS011;16507;51.046;6.406;2022-09-09T02:08:53;5.00;;;0.90;;
29574;SDS011;16507;51.046;6.406;2022-09-09T02:12:24;1.77;;;0.80;;
29574;SDS011;16507;51.046;6.406;2022-09-09T02:16:07;11.35;;;1.20;;
29574;SDS011;16507;51.046;6.406;2022-09-09T02:22:23;1.42;;;0.90;;
29574;SDS011;16507;51.046;6.406;2022-09-09T02:25:31;2.25;;;0.77;;
29574;SDS011;16507;51.046;6.406;2022-09-09T02:27:59;5.50;;;0.82;;
29574;SDS011;16507;51.046;6.406;2022-09-09T02:30:26;2.35;;;1.00;;
29574;SDS011;16507;51.046;6.406;2022-09-09T02:35:54;6.55;;;1.10;;
29574;SDS011;16507;51.046;6.406;2022-09-09T02:38:35;2.45;;;0.98;;
29574;SDS011;16507;51.046;6.406;2022-09-09T02:41:24;2.10;;;0.77;;
29574;SDS011;16507;51.046;6.406;2022-09-09T02:44:20;4.57;;;1.25;;
29574;SDS011;16507;51.046;6.406;2022-09-09T02:57:14;2.08;;;1.00;;
29574;SDS011;16507;51.046;6.406;2022-09-09T02:59:58;3.35;;;1.20;;
29574;SDS011;16507;51.046;6.406;2022-09-09T03:02:26;25.83;;;1.52;;
29574;SDS011;16507;51.046;6.406;2022-09-09T03:05:35;2.42;;;1.05;;
29574;SDS011;16507;51.046;6.406;2022-09-09T03:08:04;5.33;;;1.03;;
29574;SDS011;16507;51.046;6.406;2022-09-09T03:10:58;4.97;;;1.08;;
29574;SDS011;16507;51.046;6.406;2022-09-09T03:13:26;4.57;;;1.50;;
29574;SDS011;16507;51.046;6.406;2022-09-09T03:15:55;3.10;;;0.98;;
29574;SDS011;16507;51.046;6.406;2022-09-09T03:18:21;4.22;;;1.10;;
29574;SDS011;16507;51.046;6.406;2022-09-09T03:20:48;3.28;;;0.90;;
29574;SDS011;16507;51.046;6.406;2022-09-09T03:23:16;5.75;;;1.23;;
29574;SDS011;16507;51.046;6.406;2022-09-09T03:25:47;3.20;;;1.30;;
29574;SDS011;16507;51.046;6.406;2022-09-09T03:28:17;3.53;;;1.10;;
29574;SDS011;16507;51.046;6.406;2022-09-09T03:30:43;9.35;;;1.30;;
29574;SDS011;16507;51.046;6.406;2022-09-09T03:33:09;2.55;;;1.30;;
29574;SDS011;16507;51.046;6.406;2022-09-09T03:35:34;4.45;;;1.20;;
29574;SDS011;16507;51.046;6.406;2022-09-09T03:38:01;5.18;;;1.10;;
29574;SDS011;16507;51.046;6.406;2022-09-09T03:40:26;5.82;;;1.30;;
29574;SDS011;16507;51.046;6.406;2022-09-09T03:42:58;6.72;;;1.35;;
29574;SDS011;16507;51.046;6.406;2022-09-09T03:45:28;4.28;;;1.02;;
29574;SDS011;16507;51.046;6.406;2022-09-09T03:47:55;5.35;;;1.45;;
29574;SDS011;16507;51.046;6.406;2022-09-09T03:50:53;5.20;;;1.40;;
29574;SDS011;16507;51.046;6.406;2022-09-09T03:53:31;14.18;;;1.38;;
29574;SDS011;16507;51.046;6.406;2022-09-09T03:56:11;6.68;;;1.33;;
29574;SDS011;16507;51.046;6.406;2022-09-09T03:59:15;7.75;;;1.40;;
29574;SDS011;16507;51.046;6.406;2022-09-09T04:01:54;4.40;;;1.20;;
29574;SDS011;16507;51.046;6.406;2022-09-09T04:04:20;6.60;;;1.40;;
29574;SDS011;16507;51.046;6.406;2022-09-09T04:10:07;5.97;;;1.60;;
29574;SDS011;16507;51.046;6.406;2022-09-09T04:12:36;4.28;;;1.55;;
29574;SDS011;16507;51.046;6.406;2022-09-09T04:15:23;10.73;;;1.88;;
29574;SDS011;16507;51.046;6.406;2022-09-09T04:21:22;10.88;;;1.52;;
29574;SDS011;16507;51.046;6.406;2022-09-09T04:24:12;9.00;;;1.55;;
29574;SDS011;16507;51.046;6.406;2022-09-09T04:27:27;6.05;;;1.33;;
29574;SDS011;16507;51.046;6.406;2022-09-09T04:30:14;6.45;;;1.38;;
29574;SDS011;16507;51.046;6.406;2022-09-09T04:32:57;12.77;;;1.90;;
29574;SDS011;16507;51.046;6.406;2022-09-09T04:35:48;3.45;;;1.40;;
29574;SDS011;16507;51.046;6.406;2022-09-09T04:38:33;12.20;;;1.50;;
29574;SDS011;16507;51.046;6.406;2022-09-09T04:40:59;6.80;;;1.80;;
29574;SDS011;16507;51.046;6.406;2022-09-09T04:43:29;14.77;;;1.80;;
29574;SDS011;16507;51.046;6.406;2022-09-09T04:46:23;7.35;;;1.55;;
29574;SDS011;16507;51.046;6.406;2022-09-09T04:49:01;8.85;;;1.48;;
29574;SDS011;16507;51.046;6.406;2022-09-09T04:51:58;6.93;;;1.10;;
29574;SDS011;16507;51.046;6.406;2022-09-09T04:55:12;4.78;;;1.52;;
29574;SDS011;16507;51.046;6.406;2022-09-09T04:58:26;6.55;;;1.35;;
29574;SDS011;16507;51.046;6.406;2022-09-09T05:01:20;6.15;;;1.17;;
29574;SDS011;16507;51.046;6.406;2022-09-09T05:10:56;7.10;;;1.20;;
29574;SDS011;16507;51.046;6.406;2022-09-09T05:14:39;8.48;;;1.25;;
29574;SDS011;16507;51.046;6.406;2022-09-09T05:18:26;5.32;;;1.05;;
29574;SDS011;16507;51.046;6.406;2022-09-09T05:24:35;11.48;;;1.42;;
29574;SDS011;16507;51.046;6.406;2022-09-09T05:27:16;5.15;;;1.52;;
29574;SDS011;16507;51.046;6.406;2022-09-09T05:29:50;7.88;;;1.40;;
29574;SDS011;16507;51.046;6.406;2022-09-09T05:32:20;6.70;;;1.30;;
29574;SDS011;16507;51.046;6.406;2022-09-09T05:35:54;5.95;;;1.23;;
29574;SDS011;16507;51.046;6.406;2022-09-09T05:38:39;4.47;;;1.15;;
29574;SDS011;16507;51.046;6.406;2022-09-09T05:41:21;12.25;;;1.38;;
29574;SDS011;16507;51.046;6.406;2022-09-09T05:43:55;8.98;;;1.77;;
29574;SDS011;16507;51.046;6.406;2022-09-09T05:46:27;7.95;;;1.40;;
29574;SDS011;16507;51.046;6.406;2022-09-09T05:49:40;4.25;;;1.20;;
29574;SDS011;16507;51.046;6.406;2022-09-09T05:52:44;6.15;;;1.50;;
29574;SDS011;16507;51.046;6.406;2022-09-09T05:55:36;6.43;;;1.00;;
29574;SDS011;16507;51.046;6.406;2022-09-09T05:58:33;5.63;;;1.30;;
29574;SDS011;16507;51.046;6.406;2022-09-09T06:01:16;9.07;;;1.30;;
29574;SDS011;16507;51.046;6.406;2022-09-09T06:03:49;7.35;;;1.02;;
29574;SDS011;16507;51.046;6.406;2022-09-09T06:06:41;4.32;;;0.85;;
29574;SDS011;16507;51.046;6.406;2022-09-09T06:09:08;4.93;;;1.58;;
29574;SDS011;16507;51.046;6.406;2022-09-09T06:12:16;3.50;;;0.90;;
29574;SDS011;16507;51.046;6.406;2022-09-09T06:14:57;3.63;;;1.13;;
29574;SDS011;16507;51.046;6.406;2022-09-09T06:17:36;7.70;;;0.90;;
29574;SDS011;16507;51.046;6.406;2022-09-09T06:20:04;6.00;;;1.15;;
29574;SDS011;16507;51.046;6.406;2022-09-09T06:25:41;4.88;;;1.10;;
29574;SDS011;16507;51.046;6.406;2022-09-09T06:28:09;4.32;;;1.10;;
29574;SDS011;16507;51.046;6.406;2022-09-09T06:31:01;3.90;;;0.98;;
29574;SDS011;16507;51.046;6.406;2022-09-09T06:34:00;6.55;;;1.20;;
29574;SDS011;16507;51.046;6.406;2022-09-09T06:37:05;10.18;;;1.35;;
29574;SDS011;16507;51.046;6.406;2022-09-09T06:39:51;6.15;;;0.80;;
29574;SDS011;16507;51.046;6.406;2022-09-09T06:52:22;3.95;;;0.80;;
29574;SDS011;16507;51.046;6.406;2022-09-09T06:59:00;6.43;;;1.05;;
29574;SDS011;16507;51.046;6.406;2022-09-09T07:12:27;2.30;;;1.00;;
29574;SDS011;16507;51.046;6.406;2022-09-09T07:16:06;4.75;;;1.02;;
29574;SDS011;16507;51.046;6.406;2022-09-09T07:26:11;7.83;;;1.07;;
29574;SDS011;16507;51.046;6.406;2022-09-09T07:36:27;3.60;;;1.00;;
29574;SDS011;16507;51.046;6.406;2022-09-09T07:42:16;2.72;;;1.20;;
29574;SDS011;16507;51.046;6.406;2022-09-09T08:05:25;7.68;;;1.23;;
29574;SDS011;16507;51.046;6.406;2022-09-09T09:18:52;4.57;;;0.82;;
29574;SDS011;16507;51.046;6.406;2022-09-09T09:25:58;2.25;;;0.80;;
29574;SDS011;16507;51.046;6.406;2022-09-09T09:29:35;4.22;;;0.90;;
29574;SDS011;16507;51.046;6.406;2022-09-09T09:33:06;1.65;;;0.63;;
29574;SDS011;16507;51.046;6.406;2022-09-09T09:46:18;8.95;;;1.00;;
29574;SDS011;16507;51.046;6.406;2022-09-09T10:22:32;0.95;;;0.45;;
29574;SDS011;16507;51.046;6.406;2022-09-09T10:36:26;1.42;;;0.68;;
29574;SDS011;16507;51.046;6.406;2022-09-09T10:55:42;1.98;;;0.63;;
29574;SDS011;16507;51.046;6.406;2022-09-09T11:05:36;0.98;;;0.30;;
29574;SDS011;16507;51.046;6.406;2022-09-09T11:18:57;0.75;;;0.50;;
29574;SDS011;16507;51.046;6.406;2022-09-09T11:22:47;1.52;;;0.60;;
29574;SDS011;16507;51.046;6.406;2022-09-09T11:31:58;1.95;;;0.80;;
29574;SDS011;16507;51.046;6.406;2022-09-09T11:49:03;2.38;;;0.80;;
29574;SDS011;16507;51.046;6.406;2022-09-09T11:53:02;1.13;;;0.45;;
29574;SDS011;16507;51.046;6.406;2022-09-09T11:59:39;2.90;;;0.80;;
29574;SDS011;16507;51.046;6.406;2022-09-09T12:16:30;1.88;;;0.63;;
29574;SDS011;16507;51.046;6.406;2022-09-09T12:44:04;3.15;;;0.50;;
29574;SDS011;16507;51.046;6.406;2022-09-09T13:08:02;5.13;;;1.02;;
29574;SDS011;16507;51.046;6.406;2022-09-09T13:11:39;1.33;;;0.38;;
29574;SDS011;16507;51.046;6.406;2022-09-09T13:15:22;8.98;;;0.65;;
29574;SDS011;16507;51.046;6.406;2022-09-09T13:18:01;2.05;;;0.60;;
29574;SDS011;16507;51.046;6.406;2022-09-09T13:34:34;3.22;;;1.00;;
29574;SDS011;16507;51.046;6.406;2022-09-09T13:40:56;1.90;;;0.90;;
29574;SDS011;16507;51.046;6.406;2022-09-09T13:54:26;4.32;;;0.65;;
29574;SDS011;16507;51.046;6.406;2022-09-09T14:35:06;2.22;;;0.63;;
29574;SDS011;16507;51.046;6.406;2022-09-09T14:38:20;2.30;;;0.43;;
29574;SDS011;16507;51.046;6.406;2022-09-09T14:41:25;2.15;;;0.22;;
29574;SDS011;16507;51.046;6.406;2022-09-09T14:44:56;1.95;;;0.50;;
29574;SDS011;16507;51.046;6.406;2022-09-09T14:48:35;2.53;;;0.25;;
29574;SDS011;16507;51.046;6.406;2022-09-09T14:52:08;2.67;;;0.40;;
29574;SDS011;16507;51.046;6.406;2022-09-09T14:55:03;4.57;;;0.60;;
29574;SDS011;16507;51.046;6.406;2022-09-09T14:57:51;5.53;;;0.73;;
29574;SDS011;16507;51.046;6.406;2022-09-09T15:00:26;9.27;;;0.60;;
29574;SDS011;16507;51.046;6.406;2022-09-09T15:03:02;1.73;;;0.40;;
29574;SDS011;16507;51.046;6.406;2022-09-09T15:05:43;3.13;;;0.63;;
29574;SDS011;16507;51.046;6.406;2022-09-09T15:08:47;15.32;;;0.60;;
29574;SDS011;16507;51.046;6.406;2022-09-09T15:11:18;16.25;;;1.00;;
29574;SDS011;16507;51.046;6.406;2022-09-09T15:13:54;1.52;;;0.52;;
29574;SDS011;16507;51.046;6.406;2022-09-09T15:16:48;1.58;;;0.45;;
29574;SDS011;16507;51.046;6.406;2022-09-09T15:19:44;7.07;;;0.63;;
29574;SDS011;16507;51.046;6.406;2022-09-09T15:23:10;1.52;;;0.63;;
29574;SDS011;16507;51.046;6.406;2022-09-09T15:26:38;4.75;;;1.10;;
29574;SDS011;16507;51.046;6.406;2022-09-09T15:29:48;2.38;;;0.93;;
29574;SDS011;16507;51.046;6.406;2022-09-09T15:32:38;5.45;;;1.20;;
29574;SDS011;16507;51.046;6.406;2022-09-09T15:35:21;2.90;;;1.20;;
29574;SDS011;16507;51.046;6.406;2022-09-09T15:38:02;2.72;;;1.02;;
29574;SDS011;16507;51.046;6.406;2022-09-09T15:41:12;3.35;;;0.82;;
29574;SDS011;16507;51.046;6.406;2022-09-09T15:44:17;8.15;;;0.93;;
29574;SDS011;16507;51.046;6.406;2022-09-09T15:47:42;2.45;;;0.80;;
29574;SDS011;16507;51.046;6.406;2022-09-09T15:51:10;6.50;;;0.80;;
29574;SDS011;16507;51.046;6.406;2022-09-09T15:57:35;2.63;;;0.75;;
29574;SDS011;16507;51.046;6.406;2022-09-09T16:00:31;0.88;;;0.45;;
29574;SDS011;16507;51.046;6.406;2022-09-09T16:02:59;3.35;;;0.75;;
29574;SDS011;16507;51.046;6.406;2022-09-09T16:05:51;5.05;;;0.80;;
29574;SDS011;16507;51.046;6.406;2022-09-09T16:08:35;2.25;;;0.65;;
29574;SDS011;16507;51.046;6.406;2022-09-09T16:11:23;3.15;;;0.80;;
29574;SDS011;16507;51.046;6.406;2022-09-09T16:18:09;1.52;;;0.70;;
29574;SDS011;16507;51.046;6.406;2022-09-09T16:24:45;2.25;;;0.90;;
29574;SDS011;16507;51.046;6.406;2022-09-09T16:28:25;1.77;;;0.70;;
29574;SDS011;16507;51.046;6.406;2022-09-09T16:32:03;5.10;;;0.80;;
29574;SDS011;16507;51.046;6.406;2022-09-09T16:44:18;1.95;;;0.82;;
29574;SDS011;16507;51.046;6.406;2022-09-09T16:53:43;3.15;;;1.10;;
29574;SDS011;16507;51.046;6.406;2022-09-09T16:56:54;3.53;;;1.00;;
29574;SDS011;16507;51.046;6.406;2022-09-09T17:00:03;4.55;;;0.95;;
29574;SDS011;16507;51.046;6.406;2022-09-09T17:06:50;3.30;;;0.88;;
29574;SDS011;16507;51.046;6.406;2022-09-09T17:12:37;1.90;;;0.98;;
29574;SDS011;16507;51.046;6.406;2022-09-09T17:16:03;4.65;;;1.00;;
29574;SDS011;16507;51.046;6.406;2022-09-09T17:18:50;2.70;;;0.88;;
29574;SDS011;16507;51.046;6.406;2022-09-09T17:21:43;2.05;;;0.88;;
29574;SDS011;16507;51.046;6.406;2022-09-09T17:24:25;2.08;;;0.90;;
29574;SDS011;16507;51.046;6.406;2022-09-09T17:27:22;3.90;;;0.82;;
29574;SDS011;16507;51.046;6.406;2022-09-09T17:29:56;1.77;;;0.80;;
29574;SDS011;16507;51.046;6.406;2022-09-09T17:32:30;1.58;;;1.00;;
29574;SDS011;16507;51.046;6.406;2022-09-09T17:35:06;3.55;;;1.00;;
29574;SDS011;16507;51.046;6.406;2022-09-09T17:38:29;1.17;;;0.60;;
29574;SDS011;16507;51.046;6.406;2022-09-09T17:41:04;3.25;;;0.70;;
29574;SDS011;16507;51.046;6.406;2022-09-09T17:43:43;3.60;;;1.40;;
29574;SDS011;16507;51.046;6.406;2022-09-09T17:46:20;3.72;;;0.90;;
29574;SDS011;16507;51.046;6.406;2022-09-09T17:48:59;2.22;;;0.88;;
29574;SDS011;16507;51.046;6.406;2022-09-09T17:51:30;4.68;;;0.75;;
29574;SDS011;16507;51.046;6.406;2022-09-09T17:54:10;2.10;;;0.93;;
29574;SDS011;16507;51.046;6.406;2022-09-09T17:56:51;4.00;;;1.00;;
29574;SDS011;16507;51.046;6.406;2022-09-09T17:59:17;2.03;;;0.77;;
29574;SDS011;16507;51.046;6.406;2022-09-09T18:01:55;4.05;;;1.02;;
29574;SDS011;16507;51.046;6.406;2022-09-09T18:04:39;1.30;;;0.70;;
29574;SDS011;16507;51.046;6.406;2022-09-09T18:07:08;3.97;;;1.08;;
29574;SDS011;16507;51.046;6.406;2022-09-09T18:09:43;4.05;;;1.25;;
29574;SDS011;16507;51.046;6.406;2022-09-09T18:12:12;5.95;;;0.68;;
29574;SDS011;16507;51.046;6.406;2022-09-09T18:14:44;4.97;;;0.90;;
29574;SDS011;16507;51.046;6.406;2022-09-09T18:17:12;5.50;;;0.90;;
29574;SDS011;16507;51.046;6.406;2022-09-09T18:19:38;1.20;;;0.80;;
29574;SDS011;16507;51.046;6.406;2022-09-09T18:22:10;0.93;;;0.68;;
29574;SDS011;16507;51.046;6.406;2022-09-09T18:24:36;4.97;;;0.77;;
29574;SDS011;16507;51.046;6.406;2022-09-09T18:27:07;2.38;;;0.60;;
29574;SDS011;16507;51.046;6.406;2022-09-09T18:29:51;1.33;;;0.50;;
29574;SDS011;16507;51.046;6.406;2022-09-09T18:32:48;2.92;;;0.85;;
29574;SDS011;16507;51.046;6.406;2022-09-09T18:35:39;3.22;;;0.82;;
29574;SDS011;16507;51.046;6.406;2022-09-09T18:38:45;4.00;;;0.95;;
29574;SDS011;16507;51.046;6.406;2022-09-09T18:44:36;2.78;;;0.73;;
29574;SDS011;16507;51.046;6.406;2022-09-09T18:47:49;2.80;;;0.70;;
29574;SDS011;16507;51.046;6.406;2022-09-09T18:51:00;0.98;;;0.75;;
29574;SDS011;16507;51.046;6.406;2022-09-09T18:56:56;1.90;;;1.00;;
29574;SDS011;16507;51.046;6.406;2022-09-09T18:59:46;3.10;;;0.80;;
29574;SDS011;16507;51.046;6.406;2022-09-09T19:02:36;3.05;;;0.77;;
29574;SDS011;16507;51.046;6.406;2022-09-09T19:05:06;1.65;;;0.90;;
29574;SDS011;16507;51.046;6.406;2022-09-09T19:08:06;2.63;;;1.00;;
29574;SDS011;16507;51.046;6.406;2022-09-09T19:10:41;1.83;;;0.85;;
29574;SDS011;16507;51.046;6.406;2022-09-09T19:13:19;2.15;;;0.70;;
29574;SDS011;16507;51.046;6.406;2022-09-09T19:15:48;1.52;;;0.75;;
29574;SDS011;16507;51.046;6.406;2022-09-09T19:18:26;3.45;;;0.88;;
29574;SDS011;16507;51.046;6.406;2022-09-09T19:21:16;2.42;;;1.08;;
29574;SDS011;16507;51.046;6.406;2022-09-09T19:23:54;3.10;;;0.88;;
29574;SDS011;16507;51.046;6.406;2022-09-09T19:26:21;4.38;;;0.88;;
29574;SDS011;16507;51.046;6.406;2022-09-09T19:29:08;3.80;;;0.90;;
29574;SDS011;16507;51.046;6.406;2022-09-09T19:31:42;2.53;;;0.95;;
29574;SDS011;16507;51.046;6.406;2022-09-09T19:34:08;1.38;;;0.82;;
29574;SDS011;16507;51.046;6.406;2022-09-09T19:36:36;2.17;;;0.82;;
29574;SDS011;16507;51.046;6.406;2022-09-09T19:39:02;2.80;;;0.80;;
29574;SDS011;16507;51.046;6.406;2022-09-09T19:41:33;2.43;;;0.93;;
29574;SDS011;16507;51.046;6.406;2022-09-09T19:44:17;3.63;;;0.85;;
29574;SDS011;16507;51.046;6.406;2022-09-09T19:47:13;1.23;;;0.70;;
29574;SDS011;16507;51.046;6.406;2022-09-09T19:49:49;1.45;;;0.80;;
29574;SDS011;16507;51.046;6.406;2022-09-09T19:52:15;1.90;;;0.70;;
29574;SDS011;16507;51.046;6.406;2022-09-09T19:54:44;1.58;;;0.80;;
29574;SDS011;16507;51.046;6.406;2022-09-09T19:57:11;5.10;;;1.27;;
29574;SDS011;16507;51.046;6.406;2022-09-09T19:59:38;4.57;;;1.00;;
29574;SDS011;16507;51.046;6.406;2022-09-09T20:02:33;2.33;;;0.73;;
29574;SDS011;16507;51.046;6.406;2022-09-09T20:05:04;1.40;;;0.77;;
29574;SDS011;16507;51.046;6.406;2022-09-09T20:07:34;2.53;;;0.80;;
29574;SDS011;16507;51.046;6.406;2022-09-09T20:10:17;4.05;;;1.00;;
29574;SDS011;16507;51.046;6.406;2022-09-09T20:12:44;3.22;;;1.02;;
29574;SDS011;16507;51.046;6.406;2022-09-09T20:15:15;5.03;;;0.88;;
29574;SDS011;16507;51.046;6.406;2022-09-09T20:17:56;1.88;;;0.80;;
29574;SDS011;16507;51.046;6.406;2022-09-09T20:20:32;4.50;;;1.10;;
29574;SDS011;16507;51.046;6.406;2022-09-09T20:23:06;2.70;;;0.80;;
29574;SDS011;16507;51.046;6.406;2022-09-09T20:25:36;1.92;;;0.82;;
29574;SDS011;16507;51.046;6.406;2022-09-09T20:28:03;1.98;;;0.90;;
29574;SDS011;16507;51.046;6.406;2022-09-09T20:30:50;2.60;;;1.10;;
29574;SDS011;16507;51.046;6.406;2022-09-09T20:33:54;3.45;;;1.00;;
29574;SDS011;16507;51.046;6.406;2022-09-09T20:36:51;2.20;;;0.98;;
29574;SDS011;16507;51.046;6.406;2022-09-09T20:39:19;2.88;;;1.10;;
29574;SDS011;16507;51.046;6.406;2022-09-09T20:41:47;4.82;;;1.10;;
29574;SDS011;16507;51.046;6.406;2022-09-09T20:44:38;5.32;;;0.93;;
29574;SDS011;16507;51.046;6.406;2022-09-09T20:47:10;6.63;;;1.05;;
29574;SDS011;16507;51.046;6.406;2022-09-09T20:49:38;2.58;;;0.95;;
29574;SDS011;16507;51.046;6.406;2022-09-09T20:52:06;2.00;;;1.10;;
29574;SDS011;16507;51.046;6.406;2022-09-09T20:54:35;2.60;;;1.17;;
29574;SDS011;16507;51.046;6.406;2022-09-09T20:57:03;2.72;;;1.10;;
29574;SDS011;16507;51.046;6.406;2022-09-09T20:59:35;2.20;;;0.90;;
29574;SDS011;16507;51.046;6.406;2022-09-09T21:02:03;2.05;;;1.05;;
29574;SDS011;16507;51.046;6.406;2022-09-09T21:04:30;4.32;;;1.40;;
29574;SDS011;16507;51.046;6.406;2022-09-09T21:06:57;6.30;;;1.25;;
29574;SDS011;16507;51.046;6.406;2022-09-09T21:09:27;5.45;;;1.63;;
29574;SDS011;16507;51.046;6.406;2022-09-09T21:11:56;4.10;;;1.17;;
29574;SDS011;16507;51.046;6.406;2022-09-09T21:14:24;3.85;;;1.38;;
29574;SDS011;16507;51.046;6.406;2022-09-09T21:17:10;2.42;;;0.93;;
29574;SDS011;16507;51.046;6.406;2022-09-09T21:19:36;2.17;;;1.00;;
29574;SDS011;16507;51.046;6.406;2022-09-09T21:22:13;4.88;;;1.08;;
29574;SDS011;16507;51.046;6.406;2022-09-09T21:24:41;7.53;;;1.33;;
29574;SDS011;16507;51.046;6.406;2022-09-09T21:27:23;5.10;;;1.20;;
29574;SDS011;16507;51.046;6.406;2022-09-09T21:29:59;2.60;;;0.90;;
29574;SDS011;16507;51.046;6.406;2022-09-09T21:32:31;3.27;;;1.00;;
29574;SDS011;16507;51.046;6.406;2022-09-09T21:34:59;10.68;;;1.20;;
29574;SDS011;16507;51.046;6.406;2022-09-09T21:37:30;2.78;;;0.80;;
29574;SDS011;16507;51.046;6.406;2022-09-09T21:40:00;4.60;;;1.20;;
29574;SDS011;16507;51.046;6.406;2022-09-09T21:42:32;3.22;;;0.93;;
29574;SDS011;16507;51.046;6.406;2022-09-09T21:45:06;3.03;;;1.00;;
29574;SDS011;16507;51.046;6.406;2022-09-09T21:47:35;2.17;;;0.88;;
29574;SDS011;16507;51.046;6.406;2022-09-09T21:50:00;1.95;;;0.90;;
29574;SDS011;16507;51.046;6.406;2022-09-09T21:52:30;3.47;;;1.02;;
29574;SDS011;16507;51.046;6.406;2022-09-09T21:55:06;2.28;;;0.93;;
29574;SDS011;16507;51.046;6.406;2022-09-09T21:57:34;4.05;;;1.48;;
29574;SDS011;16507;51.046;6.406;2022-09-09T22:00:06;2.30;;;1.10;;
29574;SDS011;16507;51.046;6.406;2022-09-09T22:02:53;4.50;;;0.88;;
29574;SDS011;16507;51.046;6.406;2022-09-09T22:05:22;2.85;;;0.98;;
29574;SDS011;16507;51.046;6.406;2022-09-09T22:07:56;2.00;;;1.08;;
29574;SDS011;16507;51.046;6.406;2022-09-09T22:10:22;6.65;;;1.33;;
29574;SDS011;16507;51.046;6.406;2022-09-09T22:12:57;3.90;;;0.90;;
29574;SDS011;16507;51.046;6.406;2022-09-09T22:15:24;3.05;;;0.90;;
29574;SDS011;16507;51.046;6.406;2022-09-09T22:18:15;1.55;;;0.93;;
29574;SDS011;16507;51.046;6.406;2022-09-09T22:24:10;1.15;;;0.80;;
29574;SDS011;16507;51.046;6.406;2022-09-09T22:26:38;4.28;;;1.15;;
29574;SDS011;16507;51.046;6.406;2022-09-09T22:29:06;1.65;;;0.82;;
29574;SDS011;16507;51.046;6.406;2022-09-09T22:31:37;1.75;;;0.93;;
29574;SDS011;16507;51.046;6.406;2022-09-09T22:34:38;1.00;;;0.80;;
29574;SDS011;16507;51.046;6.406;2022-09-09T22:39:59;2.92;;;0.90;;
29574;SDS011;16507;51.046;6.406;2022-09-09T22:42:47;2.45;;;0.90;;
29574;SDS011;16507;51.046;6.406;2022-09-09T22:45:17;3.67;;;0.85;;
29574;SDS011;16507;51.046;6.406;2022-09-09T22:47:57;1.60;;;0.75;;
29574;SDS011;16507;51.046;6.406;2022-09-09T22:50:27;2.30;;;0.70;;
29574;SDS011;16507;51.046;6.406;2022-09-09T22:53:13;1.00;;;0.52;;
29574;SDS011;16507;51.046;6.406;2022-09-09T22:56:31;2.47;;;0.80;;
29574;SDS011;16507;51.046;6.406;2022-09-09T22:59:38;2.22;;;0.60;;
29574;SDS011;16507;51.046;6.406;2022-09-09T23:02:27;1.02;;;0.50;;
29574;SDS011;16507;51.046;6.406;2022-09-09T23:05:21;5.55;;;0.90;;
29574;SDS011;16507;51.046;6.406;2022-09-09T23:08:39;0.82;;;0.43;;
29574;SDS011;16507;51.046;6.406;2022-09-09T23:11:35;0.68;;;0.50;;
29574;SDS011;16507;51.046;6.406;2022-09-09T23:14:23;1.45;;;0.60;;
29574;SDS011;16507;51.046;6.406;2022-09-09T23:17:04;2.92;;;0.80;;
29574;SDS011;16507;51.046;6.406;2022-09-09T23:19:34;1.08;;;0.63;;
29574;SDS011;16507;51.046;6.406;2022-09-09T23:22:04;1.48;;;0.68;;
29574;SDS011;16507;51.046;6.406;2022-09-09T23:24:39;1.33;;;0.57;;
29574;SDS011;16507;51.046;6.406;2022-09-09T23:27:05;1.40;;;0.45;;
29574;SDS011;16507;51.046;6.406;2022-09-09T23:29:34;2.25;;;0.70;;
29574;SDS011;16507;51.046;6.406;2022-09-09T23:32:15;0.80;;;0.45;;
29574;SDS011;16507;51.046;6.406;2022-09-09T23:35:23;2.05;;;0.60;;
29574;SDS011;16507;51.046;6.406;2022-09-09T23:38:00;3.53;;;0.50;;
29574;SDS011;16507;51.046;6.406;2022-09-09T23:40:26;2.65;;;0.47;;
29574;SDS011;16507;51.046;6.406;2022-09-09T23:42:52;2.38;;;0.60;;
29574;SDS011;16507;51.046;6.406;2022-09-09T23:45:26;1.10;;;0.50;;
29574;SDS011;16507;51.046;6.406;2022-09-09T23:47:59;0.93;;;0.60;;
29574;SDS011;16507;51.046;6.406;2022-09-09T23:50:28;1.83;;;0.63;;
29574;SDS011;16507;51.046;6.406;2022-09-09T23:52:55;2.17;;;0.65;;
29574;SDS011;16507;51.046;6.406;2022-09-09T23:55:25;2.00;;;0.70;;
29574;SDS011;16507;51.046;6.406;2022-09-09T23:57:51;3.42;;;0.55;;
